Fort Cobb, Oklahoma
Current Conditions -  °F | °C
As of 6:58 PM on Wednesday 22 Oct 2014 (Local Time) from KFSI Reporting Station
Light Rain Light Rain  
Wind Chill: 66°   Ceiling: 8500
Heat Index: 66°   Visibility: 10mi
Dew Point: 62°   Wind: 0mph
Humidity: 87%   Direction: NA
Pressure: 30.08"   Gusts: NA
Location:  35.1°N, 98.44°W
Report Text: KFSI 222358Z AUTO 00000KT 10SM -RA FEW050 OVC085 19/17 A3008 RMK AO2 RAE2310B2327 SLP183 P0000 60001 T01870165 10254 20187 50003
Loading
Personal Weather Stations






























Interactive Weather Map
Tropical Storm Tracking
New forecast layout! Learn more

10-Day Weather Forecast

Advertisements
Track Severe Weather on mobile